createdAt,value
2022-12-18T00:00:05.170Z,102570.69
2022-12-18T00:02:38.383Z,102568.16
2022-12-18T00:05:10.367Z,102575.91
2022-12-18T00:07:42.034Z,102574.06
2022-12-18T00:10:15.292Z,102576.69
2022-12-18T00:12:47.691Z,102573.25
2022-12-18T00:15:18.645Z,102580.91
2022-12-18T00:17:52.342Z,102577.53
2022-12-18T00:20:26.840Z,102584.31
2022-12-18T00:22:57.908Z,102574.09
2022-12-18T00:25:29.241Z,102573.25
2022-12-18T00:28:00.168Z,102583.53
2022-12-18T00:30:31.732Z,102577.47
2022-12-18T00:33:05.544Z,102565.50
2022-12-18T00:35:36.493Z,102577.50
2022-12-18T00:38:07.902Z,102572.34
2022-12-18T00:40:38.913Z,102566.31
2022-12-18T00:43:07.284Z,102574.84
2022-12-18T00:45:38.592Z,102571.38
2022-12-18T00:48:21.582Z,102564.53
2022-12-18T00:50:53.178Z,102568.81
2022-12-18T00:53:35.360Z,102567.88
2022-12-18T00:57:18.424Z,102561.88
2022-12-18T00:59:55.021Z,102559.34
2022-12-18T01:02:25.765Z,102561.97
2022-12-18T01:04:59.313Z,102558.59
2022-12-18T01:07:30.289Z,102563.72
2022-12-18T01:10:01.040Z,102565.44
2022-12-18T01:12:32.165Z,102562.78
2022-12-18T01:15:02.857Z,102566.22
2022-12-18T01:17:33.262Z,102568.75
2022-12-18T01:20:07.417Z,102572.13
2022-12-18T01:22:38.244Z,102582.50
2022-12-18T01:25:13.262Z,102580.69
2022-12-18T01:27:45.962Z,102579.03
2022-12-18T01:30:16.930Z,102593.53
2022-12-18T01:32:47.805Z,102585.81
2022-12-18T01:35:20.572Z,102587.63
2022-12-18T01:37:51.145Z,102582.53
2022-12-18T01:40:21.290Z,102590.25
2022-12-18T01:42:54.747Z,102591.94
2022-12-18T01:45:28.304Z,102595.38
2022-12-18T01:48:01.589Z,102596.22
2022-12-18T01:50:39.688Z,102598.78
2022-12-18T01:53:15.047Z,102594.47
2022-12-18T01:55:50.638Z,102596.16
2022-12-18T01:58:22.809Z,102592.81
2022-12-18T02:00:53.240Z,102600.50
2022-12-18T02:03:23.981Z,102600.44
2022-12-18T02:06:08.409Z,102608.09
2022-12-18T02:08:51.986Z,102607.31
2022-12-18T02:11:29.697Z,102603.88
2022-12-18T02:14:10.461Z,102608.97
2022-12-18T02:16:48.589Z,102613.06
2022-12-18T02:19:38.829Z,102612.22
2022-12-18T02:22:26.273Z,102609.66
2022-12-18T02:25:11.264Z,102605.41
2022-12-18T02:27:48.978Z,102613.88
2022-12-18T02:30:22.088Z,102615.78
2022-12-18T02:32:56.175Z,102611.47
2022-12-18T02:35:34.849Z,102615.78
2022-12-18T02:38:07.262Z,102618.31
2022-12-18T02:40:39.971Z,102630.25
2022-12-18T02:43:19.238Z,102632.75
2022-12-18T02:45:52.505Z,102632.72
2022-12-18T02:48:28.051Z,102631.88
2022-12-18T02:51:08.386Z,102633.63
2022-12-18T02:53:45.909Z,102630.19
2022-12-18T02:56:23.704Z,102634.41
2022-12-18T02:59:02.961Z,102630.13
2022-12-18T03:01:40.725Z,102626.66
2022-12-18T03:04:16.857Z,102629.19
2022-12-18T03:06:52.208Z,102631.66
2022-12-18T03:09:28.311Z,102629.94
2022-12-18T03:12:18.077Z,102636.13
2022-12-18T03:14:54.675Z,102632.72
2022-12-18T03:17:28.888Z,102630.91
2022-12-18T03:20:02.578Z,102625.91
2022-12-18T03:22:36.011Z,102629.91
2022-12-18T03:25:15.180Z,102636.16
2022-12-18T03:27:50.695Z,102639.41
2022-12-18T03:30:24.977Z,102636.88
2022-12-18T03:33:07.952Z,102653.88
2022-12-18T03:35:41.568Z,102639.53
2022-12-18T03:38:13.050Z,102651.34
2022-12-18T03:40:52.746Z,102652.22
2022-12-18T03:43:31.961Z,102651.28
2022-12-18T03:46:10.603Z,102651.31
2022-12-18T03:48:46.190Z,102635.00
2022-12-18T03:51:21.945Z,102632.50
2022-12-18T03:53:59.423Z,102631.66
2022-12-18T03:56:33.386Z,102636.88
2022-12-18T03:59:06.699Z,102645.38
2022-12-18T04:01:43.567Z,102642.00
2022-12-18T04:04:15.526Z,102642.78
2022-12-18T04:06:46.874Z,102637.66
2022-12-18T04:09:18.231Z,102639.34
2022-12-18T04:11:49.445Z,102642.03
2022-12-18T04:14:20.058Z,102644.34
2022-12-18T04:17:13.978Z,102641.84
2022-12-18T04:19:44.678Z,102648.63
2022-12-18T04:22:14.692Z,102652.81
2022-12-18T04:24:44.984Z,102650.34
2022-12-18T04:27:14.987Z,102655.41
2022-12-18T04:29:45.325Z,102659.59
2022-12-18T04:32:17.822Z,102660.44
2022-12-18T04:34:48.274Z,102668.97
2022-12-18T04:37:18.727Z,102671.56
2022-12-18T04:39:49.042Z,102661.22
2022-12-18T04:42:18.962Z,102659.56
2022-12-18T04:44:49.274Z,102669.97
2022-12-18T04:47:21.796Z,102663.03
2022-12-18T04:49:52.112Z,102676.03
2022-12-18T04:52:24.821Z,102686.00
2022-12-18T04:54:55.075Z,102674.22
2022-12-18T04:57:24.989Z,102674.22
2022-12-18T04:59:55.240Z,102674.31
2022-12-18T05:02:27.988Z,102670.94
2022-12-18T05:04:58.421Z,102676.91
2022-12-18T05:07:28.621Z,102676.91
2022-12-18T05:09:58.901Z,102665.78
2022-12-18T05:12:29.144Z,102664.97
2022-12-18T05:14:59.676Z,102670.97
2022-12-18T05:17:32.524Z,102670.13
2022-12-18T05:20:03.091Z,102680.47
2022-12-18T05:22:32.988Z,102689.97
2022-12-18T05:25:03.207Z,102692.47
2022-12-18T05:27:33.093Z,102691.47
2022-12-18T05:30:03.259Z,102692.22
2022-12-18T05:32:35.835Z,102690.59
2022-12-18T05:35:06.647Z,102696.63
2022-12-18T05:37:42.767Z,102705.19
2022-12-18T05:40:14.918Z,102700.09
2022-12-18T05:42:44.985Z,102706.81
2022-12-18T05:45:15.271Z,102701.75
2022-12-18T05:47:47.838Z,102715.34
2022-12-18T05:50:18.222Z,102716.19
2022-12-18T05:52:48.178Z,102726.34
2022-12-18T05:55:18.463Z,102722.75
2022-12-18T05:57:48.359Z,102713.56
2022-12-18T06:00:19.961Z,102713.66
2022-12-18T06:02:53.360Z,102717.81
2022-12-18T06:05:23.793Z,102724.72
2022-12-18T06:07:53.695Z,102721.25
2022-12-18T06:10:23.981Z,102724.78
2022-12-18T06:12:53.886Z,102728.25
2022-12-18T06:15:24.128Z,102734.22
2022-12-18T06:17:56.692Z,102743.59
2022-12-18T06:20:33.116Z,102735.03
2022-12-18T06:23:04.253Z,102737.59
2022-12-18T06:25:34.825Z,102744.41
2022-12-18T06:28:04.769Z,102752.09
2022-12-18T06:30:35.496Z,102746.13
2022-12-18T06:33:08.051Z,102744.31
2022-12-18T06:35:38.330Z,102746.91
2022-12-18T06:38:08.290Z,102753.84
2022-12-18T06:40:41.221Z,102755.53
2022-12-18T06:43:11.646Z,102751.25
2022-12-18T06:45:42.051Z,102755.53
2022-12-18T06:48:14.632Z,102763.34
2022-12-18T06:50:46.098Z,102759.94
2022-12-18T06:53:16.619Z,102763.34
2022-12-18T06:55:47.165Z,102771.19
2022-12-18T06:58:17.157Z,102776.38
2022-12-18T07:00:47.825Z,102785.81
2022-12-18T07:03:20.400Z,102790.97
2022-12-18T07:05:50.656Z,102790.03
2022-12-18T07:08:20.557Z,102781.53
2022-12-18T07:10:55.906Z,102780.66
2022-12-18T07:13:26.422Z,102790.75
2022-12-18T07:15:56.780Z,102775.34
2022-12-18T07:18:29.371Z,102777.06
2022-12-18T07:20:59.980Z,102779.59
2022-12-18T07:23:30.229Z,102783.91
2022-12-18T07:26:04.714Z,102779.59
2022-12-18T07:28:38.137Z,102786.41
2022-12-18T07:31:09.526Z,102790.78
2022-12-18T07:33:42.790Z,102781.34
2022-12-18T07:36:13.903Z,102777.13
2022-12-18T07:38:44.117Z,102782.25
2022-12-18T07:41:16.401Z,102778.91
2022-12-18T07:43:46.305Z,102783.16
2022-12-18T07:46:17.810Z,102785.72
2022-12-18T07:48:50.644Z,102787.44
2022-12-18T07:51:21.888Z,102791.78
2022-12-18T07:53:52.449Z,102791.03
2022-12-18T07:56:29.201Z,102784.09
2022-12-18T07:59:00.763Z,102784.94
2022-12-18T08:01:31.472Z,102778.13
2022-12-18T08:04:04.075Z,102778.91
2022-12-18T08:06:34.493Z,102784.03
2022-12-18T08:09:04.489Z,102791.00
2022-12-18T08:11:34.910Z,102788.38
2022-12-18T08:14:04.853Z,102791.78
2022-12-18T08:16:35.195Z,102797.75
2022-12-18T08:19:07.718Z,102794.31
2022-12-18T08:21:38.068Z,102784.94
2022-12-18T08:24:09.107Z,102789.25
2022-12-18T08:26:39.434Z,102798.72
2022-12-18T08:29:09.450Z,102800.38
2022-12-18T08:31:39.754Z,102798.69
2022-12-18T08:34:12.288Z,102796.13
2022-12-18T08:36:42.537Z,102798.47
2022-12-18T08:39:12.543Z,102805.44
2022-12-18T08:41:42.952Z,102799.44
2022-12-18T08:44:25.444Z,102802.06
2022-12-18T08:46:55.927Z,102814.09
2022-12-18T08:49:28.429Z,102808.03
2022-12-18T08:51:58.877Z,102811.50
2022-12-18T08:54:29.617Z,102811.56
2022-12-18T08:56:59.958Z,102813.31
2022-12-18T08:59:32.804Z,102828.06
2022-12-18T09:02:03.363Z,102831.41
2022-12-18T09:04:35.977Z,102831.38
2022-12-18T09:07:06.322Z,102837.41
2022-12-18T09:09:36.469Z,102836.56
2022-12-18T09:12:07.093Z,102843.38
2022-12-18T09:14:37.015Z,102843.50
2022-12-18T09:17:07.447Z,102844.34
2022-12-18T09:19:40.004Z,102842.63
2022-12-18T09:22:10.594Z,102845.22
2022-12-18T09:24:40.549Z,102850.38
2022-12-18T09:27:10.848Z,102844.34
2022-12-18T09:29:40.769Z,102853.84
2022-12-18T09:32:11.090Z,102852.19
2022-12-18T09:34:43.657Z,102856.50
2022-12-18T09:37:14.392Z,102860.78
2022-12-18T09:39:44.299Z,102846.31
2022-12-18T09:42:20.573Z,102847.16
2022-12-18T09:44:54.829Z,102835.16
2022-12-18T09:47:29.342Z,102826.63
2022-12-18T09:50:04.811Z,102820.72
2022-12-18T09:52:39.571Z,102819.88
2022-12-18T09:55:17.123Z,102824.16
2022-12-18T09:57:53.187Z,102818.19
2022-12-18T10:00:26.116Z,102813.06
2022-12-18T10:03:03.369Z,102801.88
2022-12-18T10:05:46.631Z,102795.06
2022-12-18T10:08:25.873Z,102785.72
2022-12-18T10:10:59.396Z,102780.63
2022-12-18T10:13:41.890Z,102790.88
2022-12-18T10:16:22.539Z,102789.22
2022-12-18T10:19:22.241Z,102789.22
2022-12-18T10:22:04.541Z,102794.38
2022-12-18T10:24:42.345Z,102787.53
2022-12-18T10:27:18.677Z,102786.72
2022-12-18T10:29:49.850Z,102779.91
2022-12-18T10:32:22.327Z,102780.75
2022-12-18T10:35:00.074Z,102785.88
2022-12-18T10:37:33.661Z,102771.31
2022-12-18T10:40:18.437Z,102773.06
2022-12-18T10:42:55.830Z,102772.16
2022-12-18T10:45:26.247Z,102759.31
2022-12-18T10:47:56.480Z,102754.22
2022-12-18T10:51:01.697Z,102755.94
2022-12-18T10:53:27.542Z,102759.34
2022-12-18T10:55:59.755Z,102750.81
2022-12-18T10:58:32.529Z,102751.63
2022-12-18T11:01:09.313Z,102748.22
2022-12-18T11:03:42.192Z,102738.78
2022-12-18T11:06:14.954Z,102747.38
2022-12-18T11:09:01.694Z,102737.09
2022-12-18T11:11:33.162Z,102741.34
2022-12-18T11:14:06.552Z,102746.47
2022-12-18T11:16:40.325Z,102755.06
2022-12-18T11:19:25.204Z,102747.34
2022-12-18T11:21:55.656Z,102744.78
2022-12-18T11:24:33.704Z,102734.47
2022-12-18T11:27:06.242Z,102744.78
2022-12-18T11:29:43.347Z,102742.22
2022-12-18T11:32:29.135Z,102739.66
2022-12-18T11:35:05.611Z,102735.34
2022-12-18T11:37:36.691Z,102741.38
2022-12-18T11:40:17.983Z,102751.66
2022-12-18T11:42:54.289Z,102743.94
2022-12-18T11:45:34.364Z,102741.38
2022-12-18T11:48:09.570Z,102741.38
2022-12-18T11:50:48.817Z,102746.53
2022-12-18T11:53:19.838Z,102743.97
2022-12-18T11:56:06.152Z,102744.00
2022-12-18T11:58:50.702Z,102757.69
2022-12-18T12:01:32.955Z,102757.72
2022-12-18T12:04:19.709Z,102762.03
2022-12-18T12:07:02.930Z,102754.34
2022-12-18T12:09:45.673Z,102760.31
2022-12-18T12:12:48.962Z,102762.88
2022-12-18T12:15:33.785Z,102768.03
2022-12-18T12:18:12.674Z,102762.88
2022-12-18T12:20:54.312Z,102773.19
2022-12-18T12:23:34.774Z,102763.75
2022-12-18T12:26:10.299Z,102768.91
2022-12-18T12:29:03.666Z,102765.47
2022-12-18T12:31:49.338Z,102777.44
2022-12-18T12:34:26.696Z,102775.75
2022-12-18T12:37:10.229Z,102787.75
2022-12-18T12:39:43.237Z,102792.91
2022-12-18T12:42:35.103Z,102802.31
2022-12-18T12:45:26.948Z,102791.16
2022-12-18T12:48:05.245Z,102789.47
2022-12-18T12:50:37.920Z,102788.63
2022-12-18T12:53:13.073Z,102786.03
2022-12-18T12:55:46.131Z,102770.66
2022-12-18T12:58:23.624Z,102758.69
2022-12-18T13:01:06.595Z,102753.53
2022-12-18T13:03:58.244Z,102746.66
2022-12-18T13:06:46.979Z,102739.78
2022-12-18T13:09:17.705Z,102748.38
2022-12-18T13:12:02.253Z,102746.69
2022-12-18T13:14:35.231Z,102730.38
2022-12-18T13:17:34.991Z,102737.22
2022-12-18T13:20:15.611Z,102751.78
2022-12-18T13:22:49.895Z,102748.34
2022-12-18T13:25:37.249Z,102748.34
2022-12-18T13:28:15.632Z,102739.78
2022-12-18T13:30:59.985Z,102745.78
2022-12-18T13:34:25.554Z,102749.22
2022-12-18T13:36:47.534Z,102743.25
2022-12-18T13:39:36.901Z,102740.69
2022-12-18T13:42:51.954Z,102734.66
2022-12-18T13:45:42.536Z,102735.53
2022-12-18T13:48:32.936Z,102743.22
2022-12-18T13:51:06.776Z,102738.09
2022-12-18T13:53:45.828Z,102718.34
2022-12-18T13:56:20.332Z,102715.78
2022-12-18T13:59:16.503Z,102726.88
2022-12-18T14:01:52.844Z,102731.19
2022-12-18T14:04:27.249Z,102726.03
2022-12-18T14:07:01.442Z,102711.47
2022-12-18T14:09:40.464Z,102709.75
2022-12-18T14:12:30.891Z,102702.91
2022-12-18T14:15:02.292Z,102708.03
2022-12-18T14:17:32.722Z,102716.59
2022-12-18T14:20:04.052Z,102708.91
2022-12-18T14:22:34.668Z,102708.06
2022-12-18T14:25:29.182Z,102699.47
2022-12-18T14:28:11.700Z,102693.47
2022-12-18T14:30:44.448Z,102682.31
2022-12-18T14:33:15.923Z,102678.94
2022-12-18T14:35:56.162Z,102668.63
2022-12-18T14:38:31.947Z,102660.88
2022-12-18T14:41:07.039Z,102656.59
2022-12-18T14:43:40.012Z,102658.34
2022-12-18T14:46:32.210Z,102654.88
2022-12-18T14:49:04.129Z,102665.16
2022-12-18T14:51:36.970Z,102653.16
2022-12-18T14:54:10.883Z,102651.44
2022-12-18T14:56:49.205Z,102655.75
2022-12-18T14:59:24.853Z,102654.88
2022-12-18T15:02:04.536Z,102647.13
2022-12-18T15:04:40.234Z,102659.16
2022-12-18T15:07:17.471Z,102671.16
2022-12-18T15:10:04.032Z,102684.03
2022-12-18T15:12:42.430Z,102678.84
2022-12-18T15:15:43.388Z,102690.00
2022-12-18T15:18:18.450Z,102684.84
2022-12-18T15:20:50.686Z,102688.28
2022-12-18T15:23:23.654Z,102682.28
2022-12-18T15:26:00.086Z,102685.72
2022-12-18T15:28:40.564Z,102671.16
2022-12-18T15:31:26.891Z,102671.16
2022-12-18T15:34:16.047Z,102674.56
2022-12-18T15:36:46.045Z,102684.84
2022-12-18T15:39:16.949Z,102694.28
2022-12-18T15:42:07.369Z,102699.41
2022-12-18T15:44:38.415Z,102695.09
2022-12-18T15:47:14.696Z,102693.38
2022-12-18T15:49:44.972Z,102696.81
2022-12-18T15:52:26.968Z,102703.72
2022-12-18T15:55:09.916Z,102696.84
2022-12-18T15:57:39.849Z,102679.75
2022-12-18T16:00:16.229Z,102683.16
2022-12-18T16:02:46.422Z,102687.44
2022-12-18T16:05:20.099Z,102679.72
2022-12-18T16:07:50.420Z,102675.47
2022-12-18T16:10:20.753Z,102666.00
2022-12-18T16:12:51.522Z,102667.72
2022-12-18T16:15:25.086Z,102656.56
2022-12-18T16:17:55.491Z,102648.00
2022-12-18T16:20:26.462Z,102654.00
2022-12-18T16:22:56.540Z,102654.84
2022-12-18T16:25:28.822Z,102648.84
2022-12-18T16:28:00.009Z,102656.56
2022-12-18T16:30:38.079Z,102656.56
2022-12-18T16:33:08.589Z,102660.00
2022-12-18T16:35:38.842Z,102652.31
2022-12-18T16:38:08.827Z,102651.44
2022-12-18T16:40:59.250Z,102639.44
2022-12-18T16:43:29.149Z,102643.75
2022-12-18T16:46:02.777Z,102641.16
2022-12-18T16:48:32.891Z,102617.16
2022-12-18T16:51:05.331Z,102618.03
2022-12-18T16:53:36.659Z,102627.44
2022-12-18T16:56:07.489Z,102635.16
2022-12-18T16:58:37.474Z,102636.00
2022-12-18T17:01:13.960Z,102640.31
2022-12-18T17:03:44.762Z,102626.59
2022-12-18T17:06:16.982Z,102627.44
2022-12-18T17:08:48.801Z,102626.56
2022-12-18T17:11:19.215Z,102637.72
2022-12-18T17:13:49.122Z,102632.59
2022-12-18T17:16:22.610Z,102630.88
2022-12-18T17:18:53.069Z,102636.88
2022-12-18T17:21:23.483Z,102636.88
2022-12-18T17:23:53.398Z,102636.88
2022-12-18T17:26:24.008Z,102636.00
2022-12-18T17:28:54.343Z,102625.75
2022-12-18T17:31:29.759Z,102630.03
2022-12-18T17:34:00.172Z,102625.72
2022-12-18T17:36:32.007Z,102617.97
2022-12-18T17:39:04.177Z,102630.84
2022-12-18T17:41:35.334Z,102632.56
2022-12-18T17:44:07.045Z,102635.09
2022-12-18T17:46:40.303Z,102636.00
2022-12-18T17:49:10.886Z,102637.72
2022-12-18T17:51:42.999Z,102634.28
2022-12-18T17:54:13.965Z,102632.59
2022-12-18T17:56:44.538Z,102624.84
2022-12-18T17:59:15.088Z,102614.56
2022-12-18T18:01:48.663Z,102613.75
2022-12-18T18:04:19.038Z,102601.72
2022-12-18T18:06:51.077Z,102593.16
2022-12-18T18:09:21.067Z,102597.44
2022-12-18T18:12:03.841Z,102600.84
2022-12-18T18:14:34.546Z,102601.72
2022-12-18T18:17:07.469Z,102588.00
2022-12-18T18:19:37.447Z,102590.59
2022-12-18T18:22:10.443Z,102586.31
2022-12-18T18:24:40.983Z,102579.44
2022-12-18T18:27:11.284Z,102565.72
2022-12-18T18:29:42.293Z,102564.88
2022-12-18T18:32:15.204Z,102565.72
2022-12-18T18:34:45.157Z,102562.28
2022-12-18T18:37:15.489Z,102558.84
2022-12-18T18:39:48.037Z,102543.41
2022-12-18T18:42:18.406Z,102550.31
2022-12-18T18:44:49.161Z,102544.28
2022-12-18T18:47:22.218Z,102543.41
2022-12-18T18:49:52.122Z,102539.16
2022-12-18T18:52:22.371Z,102541.72
2022-12-18T18:55:12.354Z,102536.59
2022-12-18T18:57:57.910Z,102528.03
2022-12-18T19:00:28.870Z,102516.03
2022-12-18T19:03:01.889Z,102504.88
2022-12-18T19:05:34.446Z,102508.31
2022-12-18T19:08:04.802Z,102510.88
2022-12-18T19:10:34.738Z,102510.00
2022-12-18T19:13:17.516Z,102509.16
2022-12-18T19:15:47.605Z,102503.19
2022-12-18T19:18:21.093Z,102510.91
2022-12-18T19:20:58.840Z,102510.03
2022-12-18T19:23:29.591Z,102506.59
2022-12-18T19:26:17.046Z,102499.75
2022-12-18T19:28:53.524Z,102495.44
2022-12-18T19:31:31.769Z,102503.16
2022-12-18T19:34:09.775Z,102501.47
2022-12-18T19:36:42.143Z,102495.44
2022-12-18T19:39:15.030Z,102500.59
2022-12-18T19:41:45.834Z,102498.91
2022-12-18T19:44:19.571Z,102504.84
2022-12-18T19:46:53.214Z,102492.03
2022-12-18T19:49:26.050Z,102485.16
2022-12-18T19:51:56.109Z,102484.31
2022-12-18T19:54:26.460Z,102486.91
2022-12-18T19:56:56.497Z,102485.19
2022-12-18T19:59:27.207Z,102484.31
2022-12-18T20:01:57.447Z,102480.06
2022-12-18T20:04:31.991Z,102488.59
2022-12-18T20:07:02.010Z,102486.88
2022-12-18T20:09:32.829Z,102488.63
2022-12-18T20:12:03.431Z,102488.63
2022-12-18T20:14:33.945Z,102483.47
2022-12-18T20:17:04.205Z,102485.19
2022-12-18T20:19:38.475Z,102477.47
2022-12-18T20:22:08.769Z,102481.75
2022-12-18T20:24:39.203Z,102474.06
2022-12-18T20:27:14.538Z,102462.06
2022-12-18T20:29:46.694Z,102456.91
2022-12-18T20:32:16.696Z,102453.47
2022-12-18T20:34:49.955Z,102451.78
2022-12-18T20:37:20.753Z,102456.91
2022-12-18T20:39:51.746Z,102449.22
2022-12-18T20:42:21.836Z,102446.63
2022-12-18T20:44:52.135Z,102442.34
2022-12-18T20:47:22.329Z,102444.91
2022-12-18T20:49:55.801Z,102451.75
2022-12-18T20:52:25.772Z,102438.06
2022-12-18T20:54:56.225Z,102436.38
2022-12-18T20:57:28.891Z,102441.50
2022-12-18T20:59:59.265Z,102438.06
2022-12-18T21:02:29.430Z,102438.91
2022-12-18T21:05:02.737Z,102433.78
2022-12-18T21:07:32.956Z,102432.09
2022-12-18T21:10:03.393Z,102434.63
2022-12-18T21:12:50.935Z,102432.06
2022-12-18T21:15:29.193Z,102423.50
2022-12-18T21:17:59.270Z,102412.38
2022-12-18T21:20:32.100Z,102424.34
2022-12-18T21:23:15.860Z,102411.53
2022-12-18T21:25:47.587Z,102406.38
2022-12-18T21:28:21.939Z,102402.13
2022-12-18T21:30:52.476Z,102402.94
2022-12-18T21:33:22.458Z,102399.53
2022-12-18T21:35:55.473Z,102407.22
2022-12-18T21:38:26.033Z,102402.09
2022-12-18T21:40:56.360Z,102404.69
2022-12-18T21:43:53.674Z,102412.38
2022-12-18T21:46:24.064Z,102416.66
2022-12-18T21:48:54.161Z,102408.97
2022-12-18T21:51:27.241Z,102414.09
2022-12-18T21:53:57.593Z,102418.38
2022-12-18T21:56:28.126Z,102413.22
2022-12-18T21:58:58.125Z,102413.22
2022-12-18T22:01:30.600Z,102414.09
2022-12-18T22:04:07.464Z,102411.53
2022-12-18T22:06:43.422Z,102420.06
2022-12-18T22:09:20.917Z,102417.53
2022-12-18T22:11:52.251Z,102416.69
2022-12-18T22:14:23.231Z,102414.97
2022-12-18T22:16:55.946Z,102402.09
2022-12-18T22:19:27.489Z,102404.66
2022-12-18T22:22:00.473Z,102404.66
2022-12-18T22:24:31.360Z,102376.41
2022-12-18T22:27:02.520Z,102366.97
2022-12-18T22:29:46.861Z,102366.13
2022-12-18T22:32:30.536Z,102373.84
2022-12-18T22:35:06.820Z,102371.28
2022-12-18T22:37:42.246Z,102369.56
2022-12-18T22:40:23.858Z,102368.72
2022-12-18T22:42:56.398Z,102364.41
2022-12-18T22:45:27.972Z,102357.59
2022-12-18T22:47:58.390Z,102349.84
2022-12-18T22:50:28.593Z,102344.72
2022-12-18T22:53:04.662Z,102337.00
2022-12-18T22:55:34.704Z,102327.59
2022-12-18T22:58:04.974Z,102325.03
2022-12-18T23:00:34.941Z,102318.19
2022-12-18T23:03:05.376Z,102315.59
2022-12-18T23:05:37.316Z,102313.03
2022-12-18T23:08:27.234Z,102297.63
2022-12-18T23:10:59.770Z,102301.03
2022-12-18T23:13:30.937Z,102301.88
2022-12-18T23:16:03.706Z,102290.78
2022-12-18T23:18:33.987Z,102290.75
2022-12-18T23:21:08.496Z,102291.63
2022-12-18T23:23:42.041Z,102283.06
2022-12-18T23:26:14.519Z,102268.50
2022-12-18T23:28:47.506Z,102266.78
2022-12-18T23:31:20.679Z,102271.09
2022-12-18T23:33:54.881Z,102260.78
2022-12-18T23:36:26.388Z,102264.22
2022-12-18T23:39:01.769Z,102267.66
2022-12-18T23:41:37.655Z,102258.22
2022-12-18T23:44:10.239Z,102255.66
2022-12-18T23:46:43.857Z,102253.09
2022-12-18T23:49:39.460Z,102237.69
2022-12-18T23:52:14.805Z,102229.09
2022-12-18T23:54:48.886Z,102209.41
2022-12-18T23:57:19.025Z,102206.84
2022-12-18T23:59:52.021Z,102207.69
